Latest Weather Observations for Mount Lofty

IDS60901

Issued at 10:31 pm CDT Sunday 17 December 2017 (issued every 10 minutes, with the page automatically refreshed every 10 minutes)

About weather observations | Map of Adelaide area stations | Latest observations for Adelaide area | Other Formats
Station Details ID: 023842 Name: MOUNT LOFTY Lat: -34.98 Lon: 138.71 Height: 685.0 m
Data from the previous 72 hours. | See also: Recent months at Mount Lofty
Date/Time
CDT
Temp
°C
App
Temp
°C
Dew
Point
°C
Rel
Hum
%
Delta-T
°C
Wind Press
QNH
hPa
Press
MSL
hPa
Rain since
9am
mm
Dir  Spd
km/h
Gust
km/h
Spd
kts
Gust
kts
17/10:30pm 26.3 23.6 5.8 27 10.9 N 9 17 5 9 - - 0.0
17/10:00pm 26.0 23.8 6.1 28 10.6 NNW 7 17 4 9 - - 0.0
17/09:30pm 25.9 22.9 6.0 28 10.6 N 11 19 6 10 - - 0.0
17/09:00pm 25.9 23.2 5.5 27 10.8 NNE 9 17 5 9 - - 0.0
17/08:30pm 25.8 22.2 4.9 26 10.9 NNE 13 26 7 14 - - 0.0
17/08:00pm 26.0 23.7 7.6 31 10.1 NNW 9 15 5 8 - - 0.0
17/07:30pm 26.1 23.6 8.1 32 10.0 N 11 19 6 10 - - 0.0
17/07:00pm 23.4 21.0 8.7 39 8.1 NNW 11 28 6 15 - - 0.0
17/06:30pm 24.0 22.8 9.6 40 8.1 WNW 6 11 3 6 - - 0.0
17/06:00pm 25.0 23.5 8.5 35 9.2 NNW 6 9 3 5 - - 0.0
17/05:30pm 25.6 24.4 8.1 33 9.7 NNE 4 6 2 3 - - 0.0
17/05:00pm 26.1 25.7 9.9 36 9.3 NE 2 6 1 3 - - 0.0
17/04:30pm 26.8 26.6 9.2 33 10.0 CALM 0 0 0 0 - - 0.0
17/04:00pm 26.5 25.8 8.5 32 10.1 SW 2 4 1 2 - - 0.0
17/03:30pm 26.8 26.1 10.1 35 9.6 W 4 9 2 5 - - 0.0
17/03:00pm 26.5 25.7 8.0 31 10.3 W 2 7 1 4 - - 0.0
17/02:30pm 26.8 25.3 8.3 31 10.3 WNW 6 13 3 7 - - 0.0
17/02:00pm 26.9 25.7 7.9 30 10.5 WNW 4 9 2 5 - - 0.0
17/01:30pm 27.3 25.6 8.2 30 10.7 NW 7 15 4 8 - - 0.0
17/01:00pm 27.8 26.7 10.1 33 10.2 NNW 6 15 3 8 - - 0.0
17/12:30pm 26.4 25.3 10.1 36 9.4 N 6 13 3 7 - - 0.0
17/12:00pm 26.1 25.4 11.5 40 8.6 N 6 13 3 7 - - 0.0
17/11:30am 25.3 24.4 10.7 40 8.4 NE 6 9 3 5 - - 0.0
17/11:00am 23.8 23.3 12.1 48 6.9 ENE 6 15 3 8 - - 0.0
17/10:30am 22.4 21.8 11.8 51 6.1 E 6 13 3 7 - - 0.0
17/10:00am 21.2 20.5 12.1 56 5.3 E 7 11 4 6 - - 0.0
17/09:30am 19.6 18.6 11.1 58 4.8 E 7 15 4 8 - - 0.0
17/09:00am 19.0 18.1 10.6 58 4.7 E 6 15 3 8 - - 0.0
17/08:30am 17.9 16.8 10.5 62 4.1 E 7 13 4 7 - - 0.0
17/08:00am 17.0 15.9 10.6 66 3.5 E 7 13 4 7 - - 0.0
17/07:30am 15.0 13.8 9.6 70 2.9 ESE 6 13 3 7 - - 0.0
17/07:00am 14.0 12.7 10.0 77 2.1 ESE 7 13 4 7 - - 0.0
17/06:30am 12.6 11.3 9.8 83 1.5 ESE 7 17 4 9 - - 0.0
17/06:00am 12.1 10.9 10.2 88 1.0 ESE 7 11 4 6 - - 0.0
17/05:30am 12.3 10.9 10.9 91 0.8 ESE 9 13 5 7 - - 0.0
17/05:00am 11.7 10.3 10.9 95 0.4 ESE 9 17 5 9 - - 0.0
17/04:30am 11.6 10.2 11.0 96 0.3 ESE 9 15 5 8 - - 0.0
17/04:00am 11.5 9.7 10.9 96 0.3 ESE 11 15 6 8 - - 0.0
17/03:30am 11.7 9.6 11.1 96 0.3 ESE 13 20 7 11 - - 0.0
17/03:00am 11.8 9.7 11.2 96 0.3 ESE 13 20 7 11 - - 0.0
17/02:30am 11.9 10.2 11.3 96 0.3 ESE 11 19 6 10 - - 0.0
17/02:00am 11.5 9.3 10.7 95 0.4 ESE 13 20 7 11 - - 0.0
17/01:30am 11.7 9.9 10.9 95 0.4 ESE 11 17 6 9 - - 0.0
17/01:00am 11.8 10.0 10.9 94 0.5 ESE 11 15 6 8 - - 0.0
17/12:30am 12.0 10.3 11.1 94 0.5 ESE 11 17 6 9 - - 0.0
17/12:00am 11.8 10.0 10.7 93 0.6 ESE 11 15 6 8 - - 0.0
 
Date/Time
CDT
Temp
°C
App
Temp
°C
Dew
Point
°C
Rel
Hum
%
Delta-T
°C
Wind Press
QNH
hPa
Press
MSL
hPa
Rain since
9am
mm
Dir  Spd
km/h
Gust
km/h
Spd
kts
Gust
kts
16/11:30pm 11.6 9.6 10.2 91 0.7 ESE 11 20 6 11 - - 0.0
16/11:00pm 11.7 9.6 9.8 88 1.0 ESE 11 19 6 10 - - 0.0
16/10:30pm 11.9 9.8 9.8 87 1.1 ESE 11 17 6 9 - - 0.0
16/10:00pm 12.3 9.9 9.9 85 1.3 ESE 13 19 7 10 - - 0.0
16/09:30pm 12.8 10.8 10.2 84 1.4 ESE 11 19 6 10 - - 0.0
16/09:00pm 13.5 11.2 10.5 82 1.6 ESE 13 19 7 10 - - 0.0
16/08:30pm 14.4 12.6 10.8 79 2.0 ESE 11 17 6 9 - - 0.0
16/08:00pm 15.6 13.5 11.2 75 2.4 ESE 13 22 7 12 - - 0.0
16/07:30pm 16.8 14.7 11.1 69 3.2 ESE 13 24 7 13 - - 0.0
16/07:00pm 18.0 15.8 10.9 63 4.0 ESE 13 24 7 13 - - 0.0
16/06:30pm 19.3 17.2 11.3 60 4.5 ESE 13 24 7 13 - - 0.0
16/06:00pm 20.9 19.4 11.8 56 5.2 ESE 11 20 6 11 - - 0.0
16/05:30pm 23.2 22.7 11.9 49 6.6 SE 6 15 3 8 - - 0.0
16/05:00pm 23.8 23.4 12.4 48 6.7 SE 6 13 3 7 - - 0.0
16/04:30pm 24.1 23.6 12.1 47 7.0 ESE 6 13 3 7 - - 0.0
16/04:00pm 25.0 24.6 11.2 42 8.0 SSE 4 7 2 4 - - 0.0
16/03:30pm 23.6 23.8 13.2 52 6.2 SW 4 7 2 4 - - 0.0
16/03:00pm 23.5 22.6 9.1 40 8.0 S 4 9 2 5 - - 0.0
16/02:30pm 22.7 21.6 9.8 44 7.2 W 6 11 3 6 - - 0.0
16/02:00pm 22.4 22.1 11.5 50 6.3 NE 4 7 2 4 - - 0.0
16/01:30pm 22.0 21.7 11.4 51 6.1 SSW 4 9 2 5 - - 0.0
16/01:00pm 21.4 20.9 10.6 50 6.1 SE 4 9 2 5 - - 0.0
16/12:30pm 20.7 19.9 11.1 54 5.5 ENE 6 9 3 5 - - 0.0
16/12:00pm 19.5 18.5 10.2 55 5.2 ENE 6 11 3 6 - - 0.0
16/11:30am 18.5 17.6 10.8 61 4.3 NNW 6 13 3 7 - - 0.0
16/11:00am 18.7 18.2 10.8 60 4.4 ESE 4 11 2 6 - - 0.0
16/10:30am 17.0 15.9 10.1 64 3.8 ESE 6 9 3 5 - - 0.0
16/10:00am 15.9 14.9 10.2 69 3.1 ENE 6 9 3 5 - - 0.0
16/09:30am 15.4 14.5 9.3 67 3.3 E 4 7 2 4 - - 0.0
16/09:00am 14.7 13.4 9.1 69 3.0 E 6 15 3 8 - - 0.0
16/08:30am 14.6 13.9 10.2 75 2.4 SSE 4 11 2 6 - - 0.0
16/08:00am 13.7 12.8 10.7 82 1.6 ESE 6 9 3 5 - - 0.0
16/07:30am 12.0 11.2 11.2 95 0.4 ESE 6 9 3 5 - - 0.0
16/07:00am 11.2 10.3 10.6 96 0.3 ESE 6 9 3 5 - - 0.0
16/06:30am 10.3 9.1 9.7 96 0.3 ESE 6 7 3 4 - - 0.0
16/06:00am 10.0 8.8 9.4 96 0.3 ESE 6 7 3 4 - - 0.0
16/05:30am 9.9 8.6 9.3 96 0.3 ESE 6 9 3 5 - - 0.0
16/05:00am 10.1 8.8 9.3 95 0.4 ESE 6 7 3 4 - - 0.0
16/04:30am 10.2 9.0 9.4 95 0.4 ESE 6 7 3 4 - - 0.0
16/04:00am 10.3 9.1 9.5 95 0.4 SE 6 9 3 5 - - 0.0
16/03:30am 10.4 9.2 9.6 95 0.4 ESE 6 9 3 5 - - 0.0
16/03:00am 10.1 8.8 9.2 94 0.5 ESE 6 9 3 5 - - 0.0
16/02:30am 10.2 8.9 9.1 93 0.6 ESE 6 9 3 5 - - 0.0
16/02:00am 10.1 8.7 8.7 91 0.7 ESE 6 7 3 4 - - 0.0
16/01:30am 10.4 9.0 8.8 90 0.8 ESE 6 9 3 5 - - 0.0
16/01:00am 10.4 9.0 8.8 90 0.8 ESE 6 9 3 5 - - 0.0
16/12:30am 10.5 9.2 9.1 91 0.7 ESE 6 9 3 5 - - 0.0
16/12:00am 10.6 9.2 9.0 90 0.8 ESE 6 11 3 6 - - 0.0
 
Date/Time
CDT
Temp
°C
App
Temp
°C
Dew
Point
°C
Rel
Hum
%
Delta-T
°C
Wind Press
QNH
hPa
Press
MSL
hPa
Rain since
9am
mm
Dir  Spd
km/h
Gust
km/h
Spd
kts
Gust
kts
15/11:30pm 10.8 9.5 9.1 89 0.9 ESE 6 13 3 7 - - 0.0
15/11:00pm 11.1 9.6 9.2 88 1.0 ESE 7 13 4 7 - - 0.0
15/10:30pm 11.3 9.5 9.4 88 1.0 ESE 9 15 5 8 - - 0.0
15/10:00pm 11.6 9.8 9.5 87 1.1 ESE 9 15 5 8 - - 0.0
15/09:30pm 12.6 11.4 9.4 81 1.7 ESE 6 11 3 6 - - 0.0
15/09:00pm 13.9 12.4 8.3 69 2.9 SSW 6 11 3 6 - - 0.0
15/08:30pm 14.2 13.3 9.4 73 2.5 SSW 4 7 2 4 - - 0.0
15/08:00pm 15.1 14.3 9.5 69 3.0 SSW 4 7 2 4 - - 0.0
15/07:30pm 16.3 15.3 9.0 62 3.9 SW 4 7 2 4 - - 0.0
15/07:00pm 17.8 16.7 8.6 55 4.9 WSW 4 9 2 5 - - 0.0
15/06:30pm 18.6 17.3 9.1 54 5.1 WSW 6 11 3 6 - - 0.0
15/06:00pm 19.6 18.0 8.9 50 5.8 WSW 7 17 4 9 - - 0.0
15/05:30pm 19.6 17.8 9.5 52 5.5 W 9 15 5 8 - - 0.0
15/05:00pm 20.0 18.2 9.6 51 5.7 W 9 17 5 9 - - 0.0
15/04:30pm 20.4 19.0 9.6 50 6.0 W 7 17 4 9 - - 0.0
15/04:00pm 20.6 18.9 9.8 50 6.0 W 9 19 5 10 - - 0.0
15/03:30pm 20.3 18.4 9.2 49 6.1 W 9 19 5 10 - - 0.0
15/03:00pm 19.8 18.2 8.8 49 6.0 W 7 15 4 8 - - 0.0
15/02:30pm 19.6 17.7 8.9 50 5.8 W 9 19 5 10 - - 0.0
15/02:00pm 19.0 16.8 9.5 54 5.2 WNW 11 20 6 11 - - 0.0
15/01:30pm 18.3 15.9 9.9 58 4.6 WNW 13 19 7 10 - - 0.0
15/01:00pm 18.9 17.4 10.5 58 4.7 WNW 9 20 5 11 - - 0.0
15/12:30pm 18.9 17.1 10.7 59 4.6 NW 11 17 6 9 - - 0.0
15/12:00pm 17.7 15.7 10.1 61 4.2 NW 11 19 6 10 - - 0.0
15/11:30am 17.4 16.1 9.8 61 4.1 WNW 7 15 4 8 - - 0.0
15/11:00am 16.9 15.5 9.6 62 4.0 NNW 7 13 4 7 - - 0.0
15/10:30am 15.9 14.8 9.8 67 3.3 NW 6 13 3 7 - - 0.0
15/10:00am 15.0 13.8 9.4 69 3.0 NW 6 13 3 7 - - 0.0
15/09:30am 14.7 13.6 9.9 73 2.6 NW 6 9 3 5 - - 0.0
15/09:00am 13.6 12.3 9.1 74 2.4 WNW 6 9 3 5 - - 0.4
15/08:30am 12.8 11.9 9.1 78 1.9 ENE 4 6 2 3 - - 0.4
15/08:00am 12.7 12.0 10.1 84 1.4 E 4 6 2 3 - - 0.4
15/07:30am 11.2 10.6 10.4 95 0.4 E 4 6 2 3 - - 0.4
15/07:00am 9.7 8.3 8.9 95 0.4 E 6 7 3 4 - - 0.4
15/06:30am 9.1 7.6 8.5 96 0.3 E 6 7 3 4 - - 0.4
15/06:00am 8.8 7.2 8.2 96 0.3 ESE 6 6 3 3 - - 0.4
15/05:30am 8.9 7.4 8.3 96 0.3 ESE 6 6 3 3 - - 0.4
15/05:00am 8.9 7.4 8.3 96 0.3 ESE 6 7 3 4 - - 0.4
15/04:30am 9.1 7.6 8.5 96 0.3 ESE 6 9 3 5 - - 0.4
15/04:00am 9.2 7.6 8.6 96 0.3 ESE 7 9 4 5 - - 0.4
15/03:30am 9.4 7.8 8.8 96 0.3 ESE 7 13 4 7 - - 0.4
15/03:00am 9.5 7.9 8.7 95 0.4 ESE 7 9 4 5 - - 0.4
15/02:30am 9.7 7.8 8.9 95 0.4 ESE 9 13 5 7 - - 0.4
15/02:00am 10.3 8.5 9.5 95 0.4 ESE 9 13 5 7 - - 0.4
15/01:30am 10.3 8.5 9.4 94 0.5 ESE 9 15 5 8 - - 0.4
15/01:00am 10.8 8.7 9.9 94 0.5 ESE 11 15 6 8 - - 0.4
15/12:30am 11.1 9.9 10.2 94 0.5 ESE 7 11 4 6 - - 0.4
15/12:00am 11.2 9.6 10.3 94 0.5 ESE 9 15 5 8 - - 0.4
 
Date/Time
CDT
Temp
°C
App
Temp
°C
Dew
Point
°C
Rel
Hum
%
Delta-T
°C
Wind Press
QNH
hPa
Press
MSL
hPa
Rain since
9am
mm
Dir  Spd
km/h
Gust
km/h
Spd
kts
Gust
kts
14/11:30pm 11.3 9.4 10.4 94 0.5 ESE 11 17 6 9 - - 0.4
14/11:00pm 11.4 9.9 10.5 94 0.5 ESE 9 17 5 9 - - 0.4

Latest Capital City Observations: Canberra | Sydney | Melbourne | Brisbane | Adelaide | Perth | Hobart | Darwin

Other Formats:

Comma delimited format used in spreadsheet applications
http://www.bom.gov.au/fwo/IDS60901/IDS60901.95678.axf

JavaScript Object Notation format (JSON) in row-major order
http://www.bom.gov.au/fwo/IDS60901/IDS60901.95678.json